sensor_id;sensor_type;location;lat;lon;timestamp;pressure;altitude;pressure_sealevel;temperature;humidity
14242;BME280;7205;50.864;12.766;2023-02-11T00:01:21;99251.63;;;1.69;82.12
14242;BME280;7205;50.864;12.766;2023-02-11T00:03:50;99244.06;;;1.65;82.33
14242;BME280;7205;50.864;12.766;2023-02-11T00:06:17;99256.78;;;1.71;82.45
14242;BME280;7205;50.864;12.766;2023-02-11T00:08:48;99262.81;;;1.71;82.96
14242;BME280;7205;50.864;12.766;2023-02-11T00:11:17;99251.50;;;1.72;82.68
14242;BME280;7205;50.864;12.766;2023-02-11T00:13:46;99264.16;;;1.78;82.58
14242;BME280;7205;50.864;12.766;2023-02-11T00:16:19;99263.19;;;1.81;82.22
14242;BME280;7205;50.864;12.766;2023-02-11T00:20:01;99256.19;;;1.81;82.28
14242;BME280;7205;50.864;12.766;2023-02-11T00:22:50;99256.78;;;1.86;82.44
14242;BME280;7205;50.864;12.766;2023-02-11T00:30:53;99246.19;;;1.89;81.85
14242;BME280;7205;50.864;12.766;2023-02-11T00:37:44;99237.31;;;1.93;82.16
14242;BME280;7205;50.864;12.766;2023-02-11T00:40:25;99222.38;;;1.97;81.65
14242;BME280;7205;50.864;12.766;2023-02-11T01:12:07;99158.53;;;2.50;80.86
14242;BME280;7205;50.864;12.766;2023-02-11T01:14:50;99152.38;;;2.51;80.16
14242;BME280;7205;50.864;12.766;2023-02-11T01:17:18;99156.69;;;2.52;80.10
14242;BME280;7205;50.864;12.766;2023-02-11T01:19:48;99148.94;;;2.51;79.79
14242;BME280;7205;50.864;12.766;2023-02-11T01:22:15;99153.41;;;2.49;79.33
14242;BME280;7205;50.864;12.766;2023-02-11T01:24:54;99151.00;;;2.46;79.11
14242;BME280;7205;50.864;12.766;2023-02-11T01:27:22;99151.22;;;2.41;79.38
14242;BME280;7205;50.864;12.766;2023-02-11T01:29:49;99155.63;;;2.41;79.07
14242;BME280;7205;50.864;12.766;2023-02-11T01:32:16;99157.19;;;2.43;79.24
14242;BME280;7205;50.864;12.766;2023-02-11T01:34:43;99153.59;;;2.46;79.49
14242;BME280;7205;50.864;12.766;2023-02-11T01:37:11;99140.47;;;2.47;79.81
14242;BME280;7205;50.864;12.766;2023-02-11T01:39:38;99133.22;;;2.52;79.85
14242;BME280;7205;50.864;12.766;2023-02-11T01:42:05;99116.47;;;2.56;79.72
14242;BME280;7205;50.864;12.766;2023-02-11T01:44:36;99122.09;;;2.65;79.68
14242;BME280;7205;50.864;12.766;2023-02-11T01:47:03;99113.22;;;2.67;79.39
14242;BME280;7205;50.864;12.766;2023-02-11T01:49:33;99120.78;;;2.72;78.79
14242;BME280;7205;50.864;12.766;2023-02-11T01:52:03;99122.47;;;2.73;79.22
14242;BME280;7205;50.864;12.766;2023-02-11T01:54:32;99103.28;;;2.74;78.66
14242;BME280;7205;50.864;12.766;2023-02-11T01:57:26;99095.25;;;2.77;78.86
14242;BME280;7205;50.864;12.766;2023-02-11T02:00:00;99091.00;;;2.76;78.34
14242;BME280;7205;50.864;12.766;2023-02-11T02:02:43;99096.41;;;2.73;78.03
14242;BME280;7205;50.864;12.766;2023-02-11T02:05:25;99105.22;;;2.70;77.66
14242;BME280;7205;50.864;12.766;2023-02-11T02:10:44;99105.03;;;2.59;77.99
14242;BME280;7205;50.864;12.766;2023-02-11T02:13:12;99119.81;;;2.58;77.65
14242;BME280;7205;50.864;12.766;2023-02-11T02:15:43;99115.47;;;2.59;78.04
14242;BME280;7205;50.864;12.766;2023-02-11T02:18:21;99107.63;;;2.59;78.13
14242;BME280;7205;50.864;12.766;2023-02-11T02:21:35;99111.56;;;2.66;78.75
14242;BME280;7205;50.864;12.766;2023-02-11T02:24:26;99102.53;;;2.72;78.68
14242;BME280;7205;50.864;12.766;2023-02-11T02:27:28;99100.38;;;2.78;78.13
14242;BME280;7205;50.864;12.766;2023-02-11T02:33:29;99108.34;;;2.91;77.89
14242;BME280;7205;50.864;12.766;2023-02-11T02:36:04;99087.28;;;2.94;77.85
14242;BME280;7205;50.864;12.766;2023-02-11T02:38:37;99084.38;;;2.98;77.51
14242;BME280;7205;50.864;12.766;2023-02-11T02:41:08;99085.78;;;3.04;77.13
14242;BME280;7205;50.864;12.766;2023-02-11T02:43:39;99091.47;;;3.10;77.18
14242;BME280;7205;50.864;12.766;2023-02-11T02:46:15;99083.56;;;3.12;76.67
14242;BME280;7205;50.864;12.766;2023-02-11T02:48:45;99082.44;;;3.16;76.97
14242;BME280;7205;50.864;12.766;2023-02-11T02:54:28;99079.28;;;3.25;76.21
14242;BME280;7205;50.864;12.766;2023-02-11T02:57:38;99080.66;;;3.30;76.58
14242;BME280;7205;50.864;12.766;2023-02-11T03:00:17;99077.84;;;3.33;76.29
14242;BME280;7205;50.864;12.766;2023-02-11T03:02:57;99079.06;;;3.42;75.89
14242;BME280;7205;50.864;12.766;2023-02-11T03:05:38;99074.38;;;3.47;75.74
14242;BME280;7205;50.864;12.766;2023-02-11T03:08:21;99064.69;;;3.49;75.42
14242;BME280;7205;50.864;12.766;2023-02-11T03:10:52;99067.41;;;3.47;74.98
14242;BME280;7205;50.864;12.766;2023-02-11T03:13:24;99052.78;;;3.45;75.03
14242;BME280;7205;50.864;12.766;2023-02-11T03:15:54;99037.03;;;3.46;74.68
14242;BME280;7205;50.864;12.766;2023-02-11T03:18:27;99027.41;;;3.47;74.56
14242;BME280;7205;50.864;12.766;2023-02-11T03:20:57;99029.75;;;3.51;74.85
14242;BME280;7205;50.864;12.766;2023-02-11T03:23:28;99024.31;;;3.54;74.46
14242;BME280;7205;50.864;12.766;2023-02-11T03:25:58;99015.63;;;3.54;74.26
14242;BME280;7205;50.864;12.766;2023-02-11T03:28:48;99024.00;;;3.59;74.67
14242;BME280;7205;50.864;12.766;2023-02-11T03:31:26;99033.34;;;3.63;74.36
14242;BME280;7205;50.864;12.766;2023-02-11T03:33:59;99020.09;;;3.66;74.05
14242;BME280;7205;50.864;12.766;2023-02-11T03:36:33;99020.81;;;3.68;74.27
14242;BME280;7205;50.864;12.766;2023-02-11T03:39:03;99014.44;;;3.72;74.22
14242;BME280;7205;50.864;12.766;2023-02-11T03:41:33;99010.81;;;3.74;74.07
14242;BME280;7205;50.864;12.766;2023-02-11T03:44:02;99010.72;;;3.76;73.64
14242;BME280;7205;50.864;12.766;2023-02-11T03:46:35;99004.00;;;3.72;73.64
14242;BME280;7205;50.864;12.766;2023-02-11T03:49:11;99005.69;;;3.73;73.48
14242;BME280;7205;50.864;12.766;2023-02-11T03:51:40;99011.47;;;3.78;73.67
14242;BME280;7205;50.864;12.766;2023-02-11T03:54:10;99013.13;;;3.79;73.48
14242;BME280;7205;50.864;12.766;2023-02-11T03:56:48;99010.41;;;3.80;73.03
14242;BME280;7205;50.864;12.766;2023-02-11T03:59:16;99014.63;;;3.83;73.06
14242;BME280;7205;50.864;12.766;2023-02-11T04:01:43;99022.25;;;3.86;72.90
14242;BME280;7205;50.864;12.766;2023-02-11T04:04:10;99023.09;;;3.87;72.82
14242;BME280;7205;50.864;12.766;2023-02-11T04:06:37;99030.63;;;3.91;72.71
14242;BME280;7205;50.864;12.766;2023-02-11T04:09:05;99016.59;;;3.92;72.79
14242;BME280;7205;50.864;12.766;2023-02-11T04:11:33;99008.66;;;3.94;72.57
14242;BME280;7205;50.864;12.766;2023-02-11T04:14:00;99016.34;;;3.97;72.45
14242;BME280;7205;50.864;12.766;2023-02-11T04:16:29;99009.94;;;4.01;72.17
14242;BME280;7205;50.864;12.766;2023-02-11T04:19:08;99010.69;;;4.03;72.25
14242;BME280;7205;50.864;12.766;2023-02-11T04:21:35;99002.94;;;4.01;71.96
14242;BME280;7205;50.864;12.766;2023-02-11T04:24:02;99005.34;;;4.04;72.40
14242;BME280;7205;50.864;12.766;2023-02-11T04:26:30;99005.16;;;4.07;72.18
14242;BME280;7205;50.864;12.766;2023-02-11T04:28:57;99002.38;;;4.10;71.79
14242;BME280;7205;50.864;12.766;2023-02-11T04:31:24;99004.88;;;4.12;71.57
14242;BME280;7205;50.864;12.766;2023-02-11T04:33:51;98997.84;;;4.12;71.94
14242;BME280;7205;50.864;12.766;2023-02-11T04:36:17;98985.53;;;4.14;72.07
14242;BME280;7205;50.864;12.766;2023-02-11T04:38:44;98971.53;;;4.15;71.79
14242;BME280;7205;50.864;12.766;2023-02-11T04:41:11;98977.38;;;4.19;71.54
14242;BME280;7205;50.864;12.766;2023-02-11T04:43:39;98986.06;;;4.19;71.65
14242;BME280;7205;50.864;12.766;2023-02-11T04:46:06;98983.44;;;4.19;71.11
14242;BME280;7205;50.864;12.766;2023-02-11T04:48:32;98989.63;;;4.18;71.46
14242;BME280;7205;50.864;12.766;2023-02-11T04:51:00;98997.47;;;4.18;71.02
14242;BME280;7205;50.864;12.766;2023-02-11T04:53:27;98993.03;;;4.19;71.56
14242;BME280;7205;50.864;12.766;2023-02-11T04:55:54;98980.81;;;4.19;71.38
14242;BME280;7205;50.864;12.766;2023-02-11T04:58:21;99017.31;;;4.21;71.39
14242;BME280;7205;50.864;12.766;2023-02-11T05:00:50;99012.94;;;4.21;71.38
14242;BME280;7205;50.864;12.766;2023-02-11T05:03:16;99015.53;;;4.21;70.80
14242;BME280;7205;50.864;12.766;2023-02-11T05:05:43;99008.56;;;4.22;70.40
14242;BME280;7205;50.864;12.766;2023-02-11T05:08:10;99009.25;;;4.24;70.60
14242;BME280;7205;50.864;12.766;2023-02-11T05:10:37;99021.31;;;4.26;71.41
14242;BME280;7205;50.864;12.766;2023-02-11T05:13:04;99033.41;;;4.27;70.80
14242;BME280;7205;50.864;12.766;2023-02-11T05:15:31;99025.47;;;4.29;70.27
14242;BME280;7205;50.864;12.766;2023-02-11T05:17:59;99013.25;;;4.29;70.12
14242;BME280;7205;50.864;12.766;2023-02-11T05:20:26;99010.75;;;4.28;70.65
14242;BME280;7205;50.864;12.766;2023-02-11T05:22:52;99015.00;;;4.29;70.10
14242;BME280;7205;50.864;12.766;2023-02-11T05:25:19;99014.09;;;4.30;70.20
14242;BME280;7205;50.864;12.766;2023-02-11T05:27:46;99016.50;;;4.33;69.76
14242;BME280;7205;50.864;12.766;2023-02-11T05:30:13;99014.00;;;4.31;69.86
14242;BME280;7205;50.864;12.766;2023-02-11T05:32:40;99013.16;;;4.31;69.69
14242;BME280;7205;50.864;12.766;2023-02-11T05:35:08;99013.88;;;4.33;70.12
14242;BME280;7205;50.864;12.766;2023-02-11T05:37:35;99010.25;;;4.35;70.16
14242;BME280;7205;50.864;12.766;2023-02-11T05:40:02;99004.91;;;4.37;70.14
14242;BME280;7205;50.864;12.766;2023-02-11T05:42:29;99010.94;;;4.37;69.86
14242;BME280;7205;50.864;12.766;2023-02-11T05:44:56;99009.09;;;4.39;69.96
14242;BME280;7205;50.864;12.766;2023-02-11T05:47:23;99010.66;;;4.42;69.87
14242;BME280;7205;50.864;12.766;2023-02-11T05:49:50;99017.66;;;4.41;70.23
14242;BME280;7205;50.864;12.766;2023-02-11T05:52:19;99014.00;;;4.44;69.84
14242;BME280;7205;50.864;12.766;2023-02-11T05:54:46;99003.47;;;4.45;69.97
14242;BME280;7205;50.864;12.766;2023-02-11T05:57:13;99007.84;;;4.45;69.74
14242;BME280;7205;50.864;12.766;2023-02-11T05:59:40;99010.47;;;4.45;69.18
14242;BME280;7205;50.864;12.766;2023-02-11T06:02:07;99005.34;;;4.43;70.00
14242;BME280;7205;50.864;12.766;2023-02-11T06:04:35;99008.88;;;4.42;69.65
14242;BME280;7205;50.864;12.766;2023-02-11T06:07:02;99007.22;;;4.41;69.41
14242;BME280;7205;50.864;12.766;2023-02-11T06:09:31;99013.38;;;4.40;69.56
14242;BME280;7205;50.864;12.766;2023-02-11T06:11:57;99015.16;;;4.40;69.50
14242;BME280;7205;50.864;12.766;2023-02-11T06:14:24;99012.53;;;4.40;69.76
14242;BME280;7205;50.864;12.766;2023-02-11T06:16:51;99001.97;;;4.41;69.76
14242;BME280;7205;50.864;12.766;2023-02-11T06:19:18;98997.59;;;4.42;69.85
14242;BME280;7205;50.864;12.766;2023-02-11T06:21:44;99002.72;;;4.43;69.63
14242;BME280;7205;50.864;12.766;2023-02-11T06:24:11;98999.16;;;4.44;69.67
14242;BME280;7205;50.864;12.766;2023-02-11T06:26:40;99000.75;;;4.47;70.15
14242;BME280;7205;50.864;12.766;2023-02-11T06:29:07;99009.09;;;4.52;69.70
14242;BME280;7205;50.864;12.766;2023-02-11T06:31:35;99016.75;;;4.55;69.96
14242;BME280;7205;50.864;12.766;2023-02-11T06:34:02;99007.84;;;4.57;69.93
14242;BME280;7205;50.864;12.766;2023-02-11T06:36:29;99013.81;;;4.59;70.45
14242;BME280;7205;50.864;12.766;2023-02-11T06:38:56;99008.47;;;4.61;70.07
14242;BME280;7205;50.864;12.766;2023-02-11T06:41:23;99002.31;;;4.62;69.56
14242;BME280;7205;50.864;12.766;2023-02-11T06:43:52;99003.97;;;4.63;69.87
14242;BME280;7205;50.864;12.766;2023-02-11T06:46:19;98996.88;;;4.65;69.67
14242;BME280;7205;50.864;12.766;2023-02-11T06:48:46;98993.06;;;4.69;70.24
14242;BME280;7205;50.864;12.766;2023-02-11T06:51:14;99002.50;;;4.71;69.89
14242;BME280;7205;50.864;12.766;2023-02-11T06:53:42;98994.56;;;4.73;69.91
14242;BME280;7205;50.864;12.766;2023-02-11T06:56:11;98983.25;;;4.72;69.17
14242;BME280;7205;50.864;12.766;2023-02-11T06:58:39;98985.03;;;4.72;69.14
14242;BME280;7205;50.864;12.766;2023-02-11T07:01:09;98991.09;;;4.72;69.23
14242;BME280;7205;50.864;12.766;2023-02-11T07:03:40;98998.00;;;4.73;68.93
14242;BME280;7205;50.864;12.766;2023-02-11T07:06:09;98994.56;;;4.73;68.93
14242;BME280;7205;50.864;12.766;2023-02-11T07:08:37;99004.16;;;4.72;68.83
14242;BME280;7205;50.864;12.766;2023-02-11T07:11:08;98999.03;;;4.71;68.25
14242;BME280;7205;50.864;12.766;2023-02-11T07:13:35;99001.78;;;4.69;68.46
14242;BME280;7205;50.864;12.766;2023-02-11T07:16:04;99001.03;;;4.67;68.40
14242;BME280;7205;50.864;12.766;2023-02-11T07:18:33;99004.28;;;4.71;68.70
14242;BME280;7205;50.864;12.766;2023-02-11T07:21:03;99006.69;;;4.74;69.12
14242;BME280;7205;50.864;12.766;2023-02-11T07:23:30;98997.91;;;4.75;69.07
14242;BME280;7205;50.864;12.766;2023-02-11T07:25:57;99005.53;;;4.78;68.98
14242;BME280;7205;50.864;12.766;2023-02-11T07:28:24;99003.78;;;4.78;69.17
14242;BME280;7205;50.864;12.766;2023-02-11T07:30:51;98998.31;;;4.81;69.38
14242;BME280;7205;50.864;12.766;2023-02-11T07:33:17;98996.34;;;4.85;69.41
14242;BME280;7205;50.864;12.766;2023-02-11T07:35:46;99004.91;;;4.87;68.93
14242;BME280;7205;50.864;12.766;2023-02-11T07:38:12;99000.31;;;4.90;69.21
14242;BME280;7205;50.864;12.766;2023-02-11T07:40:39;98999.13;;;4.94;69.23
14242;BME280;7205;50.864;12.766;2023-02-11T07:43:06;98993.69;;;4.97;69.29
14242;BME280;7205;50.864;12.766;2023-02-11T07:45:37;98999.44;;;5.02;69.36
14242;BME280;7205;50.864;12.766;2023-02-11T07:48:04;98990.31;;;5.08;69.16
14242;BME280;7205;50.864;12.766;2023-02-11T07:50:31;99001.19;;;5.14;69.47
14242;BME280;7205;50.864;12.766;2023-02-11T07:52:59;99006.03;;;5.21;68.71
14242;BME280;7205;50.864;12.766;2023-02-11T07:55:26;99006.66;;;5.24;68.70
14242;BME280;7205;50.864;12.766;2023-02-11T07:57:52;98998.56;;;5.27;68.79
14242;BME280;7205;50.864;12.766;2023-02-11T08:00:19;98997.59;;;5.28;68.73
14242;BME280;7205;50.864;12.766;2023-02-11T08:02:46;98998.56;;;5.27;68.58
14242;BME280;7205;50.864;12.766;2023-02-11T08:05:13;98992.47;;;5.27;68.41
14242;BME280;7205;50.864;12.766;2023-02-11T08:07:40;98996.88;;;5.26;68.04
14242;BME280;7205;50.864;12.766;2023-02-11T08:10:08;98998.56;;;5.27;68.45
14242;BME280;7205;50.864;12.766;2023-02-11T08:12:35;99002.84;;;5.28;68.52
14242;BME280;7205;50.864;12.766;2023-02-11T08:15:03;98990.59;;;5.29;68.45
14242;BME280;7205;50.864;12.766;2023-02-11T08:17:29;99002.09;;;5.26;68.70
14242;BME280;7205;50.864;12.766;2023-02-11T08:19:56;98997.09;;;5.23;68.84
14242;BME280;7205;50.864;12.766;2023-02-11T08:22:23;98991.97;;;5.22;69.29
14242;BME280;7205;50.864;12.766;2023-02-11T08:24:50;99002.34;;;5.23;69.40
14242;BME280;7205;50.864;12.766;2023-02-11T08:27:18;98993.56;;;5.24;69.53
14242;BME280;7205;50.864;12.766;2023-02-11T08:29:44;98994.25;;;5.26;69.50
14242;BME280;7205;50.864;12.766;2023-02-11T08:32:11;98989.63;;;5.30;69.61
14242;BME280;7205;50.864;12.766;2023-02-11T08:34:38;98990.16;;;5.35;69.52
14242;BME280;7205;50.864;12.766;2023-02-11T08:37:05;98995.09;;;5.39;69.46
14242;BME280;7205;50.864;12.766;2023-02-11T08:39:33;98988.66;;;5.43;69.51
14242;BME280;7205;50.864;12.766;2023-02-11T08:42:00;98998.91;;;5.46;69.48
14242;BME280;7205;50.864;12.766;2023-02-11T08:44:28;98996.91;;;5.50;69.29
14242;BME280;7205;50.864;12.766;2023-02-11T08:46:55;98996.91;;;5.50;69.29
14242;BME280;7205;50.864;12.766;2023-02-11T08:49:22;99000.38;;;5.50;69.20
14242;BME280;7205;50.864;12.766;2023-02-11T08:51:49;98993.56;;;5.48;69.41
14242;BME280;7205;50.864;12.766;2023-02-11T08:54:16;98995.59;;;5.44;69.39
14242;BME280;7205;50.864;12.766;2023-02-11T08:56:43;98997.13;;;5.47;69.73
14242;BME280;7205;50.864;12.766;2023-02-11T08:59:12;99004.66;;;5.51;70.72
14242;BME280;7205;50.864;12.766;2023-02-11T09:01:40;99013.34;;;5.52;70.19
14242;BME280;7205;50.864;12.766;2023-02-11T09:04:08;99011.47;;;5.54;70.53
14242;BME280;7205;50.864;12.766;2023-02-11T09:06:35;99010.19;;;5.59;70.99
14242;BME280;7205;50.864;12.766;2023-02-11T09:09:02;99001.16;;;5.63;71.01
14242;BME280;7205;50.864;12.766;2023-02-11T09:11:31;99001.78;;;5.67;70.99
14242;BME280;7205;50.864;12.766;2023-02-11T09:13:59;99001.53;;;5.70;70.93
14242;BME280;7205;50.864;12.766;2023-02-11T09:16:28;99005.50;;;5.75;71.53
14242;BME280;7205;50.864;12.766;2023-02-11T09:19:00;98999.44;;;5.75;71.42
14242;BME280;7205;50.864;12.766;2023-02-11T09:21:28;99005.28;;;5.78;71.22
14242;BME280;7205;50.864;12.766;2023-02-11T09:23:55;99006.97;;;5.79;71.01
14242;BME280;7205;50.864;12.766;2023-02-11T09:26:24;99004.16;;;5.82;71.02
14242;BME280;7205;50.864;12.766;2023-02-11T09:28:51;99000.34;;;5.86;70.68
14242;BME280;7205;50.864;12.766;2023-02-11T09:31:20;99016.81;;;5.88;70.66
14242;BME280;7205;50.864;12.766;2023-02-11T09:33:49;99017.66;;;5.89;70.40
14242;BME280;7205;50.864;12.766;2023-02-11T09:36:20;99026.44;;;5.88;70.59
14242;BME280;7205;50.864;12.766;2023-02-11T09:38:47;99032.66;;;5.87;70.31
14242;BME280;7205;50.864;12.766;2023-02-11T09:41:52;99036.50;;;5.81;70.59
14242;BME280;7205;50.864;12.766;2023-02-11T09:44:22;99038.31;;;5.81;70.82
14242;BME280;7205;50.864;12.766;2023-02-11T09:46:54;99038.97;;;5.84;71.25
14242;BME280;7205;50.864;12.766;2023-02-11T09:49:29;99036.34;;;5.84;71.11
14242;BME280;7205;50.864;12.766;2023-02-11T09:52:02;99058.00;;;5.86;71.08
14242;BME280;7205;50.864;12.766;2023-02-11T09:54:34;99062.56;;;5.84;71.35
14242;BME280;7205;50.864;12.766;2023-02-11T09:57:03;99051.00;;;5.87;71.70
14242;BME280;7205;50.864;12.766;2023-02-11T09:59:30;99067.34;;;5.90;71.99
14242;BME280;7205;50.864;12.766;2023-02-11T10:02:00;99069.72;;;5.93;72.67
14242;BME280;7205;50.864;12.766;2023-02-11T10:04:43;99047.81;;;5.94;72.48
14242;BME280;7205;50.864;12.766;2023-02-11T10:07:20;99061.75;;;5.95;72.31
14242;BME280;7205;50.864;12.766;2023-02-11T10:10:07;99058.19;;;5.96;72.55
14242;BME280;7205;50.864;12.766;2023-02-11T10:12:48;99060.31;;;5.91;72.58
14242;BME280;7205;50.864;12.766;2023-02-11T10:15:23;99067.44;;;5.89;72.75
14242;BME280;7205;50.864;12.766;2023-02-11T10:18:00;99053.50;;;5.88;72.58
14242;BME280;7205;50.864;12.766;2023-02-11T10:20:34;99050.66;;;5.91;72.90
14242;BME280;7205;50.864;12.766;2023-02-11T10:23:09;99054.72;;;5.95;73.37
14242;BME280;7205;50.864;12.766;2023-02-11T10:25:42;99045.78;;;5.98;73.25
14242;BME280;7205;50.864;12.766;2023-02-11T10:28:12;99055.97;;;6.02;73.17
14242;BME280;7205;50.864;12.766;2023-02-11T10:30:42;99050.38;;;6.07;73.22
14242;BME280;7205;50.864;12.766;2023-02-11T10:33:22;99038.63;;;6.12;73.76
14242;BME280;7205;50.864;12.766;2023-02-11T10:35:51;99043.50;;;6.17;73.83
14242;BME280;7205;50.864;12.766;2023-02-11T10:38:21;99033.41;;;6.23;73.50
14242;BME280;7205;50.864;12.766;2023-02-11T10:40:48;99039.97;;;6.29;73.49
14242;BME280;7205;50.864;12.766;2023-02-11T10:43:16;99032.72;;;6.32;73.15
14242;BME280;7205;50.864;12.766;2023-02-11T10:45:46;99015.91;;;6.35;72.73
14242;BME280;7205;50.864;12.766;2023-02-11T10:48:40;99018.09;;;6.41;72.84
14242;BME280;7205;50.864;12.766;2023-02-11T10:51:15;99026.34;;;6.48;72.80
14242;BME280;7205;50.864;12.766;2023-02-11T10:53:44;99014.50;;;6.53;72.69
14242;BME280;7205;50.864;12.766;2023-02-11T10:56:18;99020.16;;;6.60;72.39
14242;BME280;7205;50.864;12.766;2023-02-11T10:58:54;99011.09;;;6.64;72.32
14242;BME280;7205;50.864;12.766;2023-02-11T11:01:22;99007.28;;;6.68;72.35
14242;BME280;7205;50.864;12.766;2023-02-11T11:03:50;99002.53;;;6.73;72.17
14242;BME280;7205;50.864;12.766;2023-02-11T11:06:28;99010.03;;;6.77;71.93
14242;BME280;7205;50.864;12.766;2023-02-11T11:08:58;99018.38;;;6.82;72.16
14242;BME280;7205;50.864;12.766;2023-02-11T11:11:25;99024.25;;;6.86;71.88
14242;BME280;7205;50.864;12.766;2023-02-11T11:13:56;99033.56;;;6.90;71.97
14242;BME280;7205;50.864;12.766;2023-02-11T11:16:25;99038.94;;;6.99;72.17
14242;BME280;7205;50.864;12.766;2023-02-11T11:19:15;99027.13;;;7.05;71.75
14242;BME280;7205;50.864;12.766;2023-02-11T11:21:47;99028.31;;;7.12;71.58
14242;BME280;7205;50.864;12.766;2023-02-11T11:24:18;99019.38;;;7.14;71.26
14242;BME280;7205;50.864;12.766;2023-02-11T11:26:48;99013.38;;;7.12;71.20
14242;BME280;7205;50.864;12.766;2023-02-11T11:29:18;99018.66;;;7.12;71.27
14242;BME280;7205;50.864;12.766;2023-02-11T11:31:50;99018.03;;;7.09;70.82
14242;BME280;7205;50.864;12.766;2023-02-11T11:34:25;99016.25;;;7.09;71.05
14242;BME280;7205;50.864;12.766;2023-02-11T11:36:54;99014.34;;;7.11;71.26
14242;BME280;7205;50.864;12.766;2023-02-11T11:39:25;99021.16;;;7.14;71.13
14242;BME280;7205;50.864;12.766;2023-02-11T11:41:55;99010.75;;;7.12;70.84
14242;BME280;7205;50.864;12.766;2023-02-11T11:44:28;99009.91;;;7.12;70.86
14242;BME280;7205;50.864;12.766;2023-02-11T11:47:21;99017.59;;;7.15;70.87
14242;BME280;7205;50.864;12.766;2023-02-11T11:50:04;98996.44;;;7.16;70.60
14242;BME280;7205;50.864;12.766;2023-02-11T11:52:42;98996.91;;;7.21;71.31
14242;BME280;7205;50.864;12.766;2023-02-11T11:55:17;98992.13;;;7.26;71.08
14242;BME280;7205;50.864;12.766;2023-02-11T11:57:46;98999.53;;;7.32;71.13
14242;BME280;7205;50.864;12.766;2023-02-11T12:00:15;98991.06;;;7.40;70.85
14242;BME280;7205;50.864;12.766;2023-02-11T12:03:05;98997.38;;;7.37;70.51
14242;BME280;7205;50.864;12.766;2023-02-11T12:05:42;98995.00;;;7.34;70.16
14242;BME280;7205;50.864;12.766;2023-02-11T12:08:17;98985.53;;;7.32;70.16
14242;BME280;7205;50.864;12.766;2023-02-11T12:11:00;98985.19;;;7.25;70.20
14242;BME280;7205;50.864;12.766;2023-02-11T12:13:44;98996.09;;;7.21;70.14
14242;BME280;7205;50.864;12.766;2023-02-11T12:16:24;98992.72;;;7.19;70.33
14242;BME280;7205;50.864;12.766;2023-02-11T12:19:23;98997.38;;;7.15;70.46
14242;BME280;7205;50.864;12.766;2023-02-11T12:22:06;99003.13;;;7.09;70.36
14242;BME280;7205;50.864;12.766;2023-02-11T12:24:58;99000.75;;;7.06;70.65
14242;BME280;7205;50.864;12.766;2023-02-11T12:27:39;99017.81;;;7.01;71.08
14242;BME280;7205;50.864;12.766;2023-02-11T12:30:20;99018.78;;;7.00;71.13
14242;BME280;7205;50.864;12.766;2023-02-11T12:32:52;99030.34;;;6.97;71.36
14242;BME280;7205;50.864;12.766;2023-02-11T12:35:28;99023.44;;;6.96;71.28
14242;BME280;7205;50.864;12.766;2023-02-11T12:38:22;99023.63;;;6.93;71.08
14242;BME280;7205;50.864;12.766;2023-02-11T12:41:01;99016.97;;;6.89;71.32
14242;BME280;7205;50.864;12.766;2023-02-11T12:43:37;99020.53;;;6.88;71.51
14242;BME280;7205;50.864;12.766;2023-02-11T12:46:26;99009.94;;;6.90;71.63
14242;BME280;7205;50.864;12.766;2023-02-11T12:49:08;99021.38;;;6.89;71.66
14242;BME280;7205;50.864;12.766;2023-02-11T12:51:48;99021.25;;;6.90;71.84
14242;BME280;7205;50.864;12.766;2023-02-11T12:54:22;99023.75;;;6.92;71.83
14242;BME280;7205;50.864;12.766;2023-02-11T12:56:54;99013.97;;;6.94;71.58
14242;BME280;7205;50.864;12.766;2023-02-11T12:59:39;99011.34;;;6.94;71.93
14242;BME280;7205;50.864;12.766;2023-02-11T13:02:17;99005.03;;;6.96;71.54
14242;BME280;7205;50.864;12.766;2023-02-11T13:04:47;98998.94;;;6.96;71.92
14242;BME280;7205;50.864;12.766;2023-02-11T13:07:22;98986.06;;;6.93;71.60
14242;BME280;7205;50.864;12.766;2023-02-11T13:09:55;98987.13;;;6.90;71.87
14242;BME280;7205;50.864;12.766;2023-02-11T13:12:24;98996.91;;;6.88;71.67
14242;BME280;7205;50.864;12.766;2023-02-11T13:15:14;98998.97;;;6.85;71.89
14242;BME280;7205;50.864;12.766;2023-02-11T13:17:49;98997.16;;;6.85;71.87
14242;BME280;7205;50.864;12.766;2023-02-11T13:20:25;98995.50;;;6.84;71.85
14242;BME280;7205;50.864;12.766;2023-02-11T13:22:59;99000.88;;;6.83;72.03
14242;BME280;7205;50.864;12.766;2023-02-11T13:25:32;99007.78;;;6.84;72.12
14242;BME280;7205;50.864;12.766;2023-02-11T13:28:13;98999.78;;;6.85;72.17
14242;BME280;7205;50.864;12.766;2023-02-11T13:30:45;99006.00;;;6.84;72.17
14242;BME280;7205;50.864;12.766;2023-02-11T13:33:29;98990.34;;;6.83;71.99
14242;BME280;7205;50.864;12.766;2023-02-11T13:36:12;98995.13;;;6.78;71.98
14242;BME280;7205;50.864;12.766;2023-02-11T13:38:40;98997.88;;;6.76;72.21
14242;BME280;7205;50.864;12.766;2023-02-11T13:41:18;99003.25;;;6.75;72.28
14242;BME280;7205;50.864;12.766;2023-02-11T13:43:57;98996.19;;;6.75;72.04
14242;BME280;7205;50.864;12.766;2023-02-11T13:46:28;98999.66;;;6.76;72.62
14242;BME280;7205;50.864;12.766;2023-02-11T13:48:56;99006.56;;;6.77;72.45
14242;BME280;7205;50.864;12.766;2023-02-11T13:51:34;99000.50;;;6.76;72.38
14242;BME280;7205;50.864;12.766;2023-02-11T13:54:03;98996.19;;;6.75;72.20
14242;BME280;7205;50.864;12.766;2023-02-11T13:56:33;99001.44;;;6.75;72.08
14242;BME280;7205;50.864;12.766;2023-02-11T13:59:02;98998.00;;;6.75;72.48
14242;BME280;7205;50.864;12.766;2023-02-11T14:01:40;99008.69;;;6.72;72.40
14242;BME280;7205;50.864;12.766;2023-02-11T14:04:21;99011.56;;;6.69;72.73
14242;BME280;7205;50.864;12.766;2023-02-11T14:07:26;99001.31;;;6.66;72.88
14242;BME280;7205;50.864;12.766;2023-02-11T14:10:47;98990.94;;;6.64;72.80
14242;BME280;7205;50.864;12.766;2023-02-11T14:13:22;98992.97;;;6.61;73.00
14242;BME280;7205;50.864;12.766;2023-02-11T14:16:02;98985.19;;;6.59;73.34
14242;BME280;7205;50.864;12.766;2023-02-11T14:21:21;98998.31;;;6.59;73.70
14242;BME280;7205;50.864;12.766;2023-02-11T14:23:50;98999.06;;;6.61;73.87
14242;BME280;7205;50.864;12.766;2023-02-11T14:26:29;98997.34;;;6.60;73.86
14242;BME280;7205;50.864;12.766;2023-02-11T14:29:05;99001.56;;;6.63;74.95